Time;durP1;ratioP1;P1;durP2;ratioP2;P2;SDS_P1;SDS_P2;PMS_P1;PMS_P2;Temp;Humidity;BMP_temperature;BMP_pressure;BME280_temperature;BME280_humidity;BME280_pressure;Samples;Min_cycle;Max_cycle;Signal;HPM_P1;HPM_P2
2023/07/30 00:00:40;;;;;;;1.73;1.63;;;17.30;99.90;;;;;;2055615;28;20293;-81
2023/07/30 00:01:40;;;;;;;3.73;2.50;;;17.20;99.90;;;;;;2060567;28;20265;-81
2023/07/30 00:02:41;;;;;;;2.00;1.80;;;17.30;99.90;;;;;;2075133;28;20216;-80
2023/07/30 00:03:42;;;;;;;2.67;1.73;;;17.30;99.90;;;;;;2072926;28;20271;-81
2023/07/30 00:04:43;;;;;;;2.70;1.80;;;17.20;99.90;;;;;;2078242;28;20227;-81
2023/07/30 00:05:53;;;;;;;2.00;1.60;;;17.20;99.90;;;;;;2063297;28;20599;-80
2023/07/30 00:06:53;;;;;;;3.97;1.97;;;17.20;99.90;;;;;;2056021;28;20468;-81
2023/07/30 00:07:54;;;;;;;2.93;1.50;;;17.20;99.90;;;;;;2055365;28;20479;-81
2023/07/30 00:08:55;;;;;;;2.37;1.90;;;17.20;99.90;;;;;;2068046;28;20253;-80
2023/07/30 00:09:57;;;;;;;1.60;1.50;;;17.20;99.90;;;;;;2077374;28;20244;-81
2023/07/30 00:10:58;;;;;;;2.67;1.90;;;17.30;99.90;;;;;;2067941;28;20751;-80
2023/07/30 00:12:02;;;;;;;1.80;1.57;;;17.20;99.90;;;;;;2063329;28;20510;-80
2023/07/30 00:13:02;;;;;;;8.13;2.53;;;17.20;99.90;;;;;;2063575;28;20495;-80
2023/07/30 00:14:03;;;;;;;9.03;1.97;;;17.10;99.90;;;;;;2078438;28;20453;-81
2023/07/30 00:15:05;;;;;;;1.90;1.70;;;17.00;99.90;;;;;;2068465;28;20182;-81
2023/07/30 00:16:05;;;;;;;2.83;1.80;;;16.90;99.90;;;;;;2071530;28;20196;-81
2023/07/30 00:17:06;;;;;;;3.90;1.97;;;16.80;99.90;;;;;;2063653;28;20431;-81
2023/07/30 00:18:07;;;;;;;1.90;1.67;;;16.70;99.90;;;;;;2062508;28;20186;-83
2023/07/30 00:19:07;;;;;;;2.10;1.90;;;16.70;99.90;;;;;;2060766;28;20611;-80
2023/07/30 00:20:08;;;;;;;1.80;1.70;;;16.50;99.90;;;;;;2062918;28;20273;-81
2023/07/30 00:21:09;;;;;;;2.20;2.00;;;16.50;99.90;;;;;;2059014;28;20194;-80
2023/07/30 00:22:10;;;;;;;2.27;1.67;;;16.50;99.90;;;;;;2052436;28;20495;-82
2023/07/30 00:23:11;;;;;;;2.17;1.93;;;16.50;99.90;;;;;;2055220;28;20191;-81
2023/07/30 00:24:12;;;;;;;2.70;1.80;;;16.40;99.90;;;;;;2067592;28;20181;-82
2023/07/30 00:25:13;;;;;;;4.40;1.83;;;16.30;99.90;;;;;;2073412;28;20712;-82
2023/07/30 00:26:14;;;;;;;2.30;1.87;;;16.30;99.90;;;;;;2073599;28;20466;-83
2023/07/30 00:27:15;;;;;;;2.67;1.87;;;16.40;99.90;;;;;;2079606;28;20197;-81
2023/07/30 00:28:15;;;;;;;2.20;2.00;;;16.40;99.90;;;;;;2072340;28;20189;-81
2023/07/30 00:29:16;;;;;;;2.00;1.80;;;16.40;99.90;;;;;;2080564;28;20204;-81
2023/07/30 00:30:17;;;;;;;2.70;2.07;;;16.40;99.90;;;;;;2076950;28;24023;-83
2023/07/30 00:31:17;;;;;;;3.03;2.10;;;16.40;99.90;;;;;;2069834;28;20312;-82
2023/07/30 00:32:18;;;;;;;2.17;1.97;;;16.50;99.90;;;;;;2070181;28;20315;-82
2023/07/30 00:33:19;;;;;;;2.93;2.30;;;16.50;99.90;;;;;;2078208;28;21220;-83
2023/07/30 00:34:20;;;;;;;2.83;2.43;;;16.50;99.90;;;;;;2073023;28;20229;-82
2023/07/30 00:35:22;;;;;;;2.43;2.00;;;16.50;99.90;;;;;;2065244;28;20476;-82
2023/07/30 00:36:22;;;;;;;2.37;2.17;;;16.50;99.90;;;;;;2063545;28;20226;-83
2023/07/30 00:37:23;;;;;;;2.20;1.87;;;16.60;99.90;;;;;;2068203;28;20459;-83
2023/07/30 00:38:24;;;;;;;2.70;2.30;;;16.60;99.90;;;;;;2070312;28;20236;-82
2023/07/30 00:39:24;;;;;;;2.53;1.93;;;16.50;99.90;;;;;;2069546;28;20280;-82
2023/07/30 00:40:25;;;;;;;2.23;1.83;;;16.50;99.90;;;;;;2066508;28;20726;-81
2023/07/30 00:41:26;;;;;;;2.57;2.30;;;16.60;99.90;;;;;;2056948;28;20226;-82
2023/07/30 00:42:26;;;;;;;3.17;1.90;;;16.70;99.90;;;;;;2072853;28;20221;-82
2023/07/30 00:43:27;;;;;;;2.63;1.93;;;16.60;99.90;;;;;;2076315;28;20225;-83
2023/07/30 00:44:28;;;;;;;2.60;2.33;;;16.60;99.90;;;;;;2075776;28;20225;-82
2023/07/30 00:45:29;;;;;;;3.03;2.13;;;16.70;99.90;;;;;;2073850;28;20217;-83
2023/07/30 00:46:30;;;;;;;2.30;1.80;;;16.70;99.90;;;;;;2058804;28;20244;-81
2023/07/30 00:47:31;;;;;;;2.10;1.80;;;16.60;99.90;;;;;;2062757;28;20534;-82
2023/07/30 00:48:32;;;;;;;2.63;1.93;;;16.60;99.90;;;;;;2063417;28;20965;-82
2023/07/30 00:49:33;;;;;;;2.37;2.00;;;16.50;99.90;;;;;;2080581;28;20528;-81
2023/07/30 00:50:34;;;;;;;3.60;2.10;;;16.60;99.90;;;;;;2071274;28;20463;-82
2023/07/30 00:51:35;;;;;;;3.00;2.23;;;16.50;99.90;;;;;;2075801;28;20230;-80
2023/07/30 00:52:36;;;;;;;2.40;2.07;;;16.50;99.90;;;;;;2071740;28;20219;-79
2023/07/30 00:53:37;;;;;;;3.10;2.00;;;16.50;99.90;;;;;;2079906;28;20228;-81
2023/07/30 00:54:39;;;;;;;2.73;2.07;;;16.50;99.90;;;;;;2083380;28;20490;-81
2023/07/30 00:55:40;;;;;;;2.87;2.00;;;16.50;99.90;;;;;;2071706;28;20786;-83
2023/07/30 00:56:51;;;;;;;3.43;2.10;;;16.50;99.90;;;;;;2065767;28;20460;-83
2023/07/30 00:57:52;;;;;;;2.40;2.10;;;16.60;99.90;;;;;;2076030;28;20414;-81
2023/07/30 00:58:52;;;;;;;2.97;2.07;;;16.60;99.90;;;;;;2075852;28;20494;-81
2023/07/30 00:59:53;;;;;;;2.30;2.10;;;16.70;99.90;;;;;;2075502;28;20734;-80
2023/07/30 01:00:54;;;;;;;2.20;2.00;;;16.70;99.90;;;;;;2090203;28;20209;-80
2023/07/30 01:01:59;;;;;;;2.20;1.80;;;16.60;99.90;;;;;;2089163;28;20339;-80
2023/07/30 01:03:00;;;;;;;2.27;2.07;;;16.60;99.90;;;;;;2066343;28;20219;-80
2023/07/30 01:04:01;;;;;;;3.30;2.10;;;16.60;99.90;;;;;;2082046;28;20486;-81
2023/07/30 01:05:05;;;;;;;2.33;2.13;;;16.70;99.90;;;;;;2080445;28;20450;-80
2023/07/30 01:06:07;;;;;;;2.93;2.20;;;16.60;99.90;;;;;;2074445;28;20420;-80
2023/07/30 01:07:07;;;;;;;2.80;2.00;;;16.60;99.90;;;;;;2074445;28;20416;-81
2023/07/30 01:08:08;;;;;;;2.30;2.10;;;16.50;99.90;;;;;;2085333;28;20490;-82
2023/07/30 01:09:10;;;;;;;5.00;2.20;;;16.50;99.90;;;;;;2081085;28;20232;-82
2023/07/30 01:10:11;;;;;;;2.37;2.00;;;16.50;99.90;;;;;;2061861;28;20217;-82
2023/07/30 01:11:12;;;;;;;2.43;2.10;;;16.40;99.90;;;;;;2055855;28;20527;-81
2023/07/30 01:12:14;;;;;;;4.93;2.20;;;16.30;99.90;;;;;;2064075;28;20186;-82
2023/07/30 01:13:16;;;;;;;2.30;2.10;;;16.30;99.90;;;;;;2062962;28;20429;-82
2023/07/30 01:14:19;;;;;;;2.57;1.70;;;16.40;99.90;;;;;;2066192;28;20933;-82
2023/07/30 01:15:20;;;;;;;2.97;1.83;;;16.40;99.90;;;;;;2070266;28;20510;-82
2023/07/30 01:16:20;;;;;;;2.23;1.90;;;16.40;99.90;;;;;;2074021;28;21077;-81
2023/07/30 01:17:22;;;;;;;2.47;1.93;;;16.50;99.90;;;;;;2077051;28;20229;-81
2023/07/30 01:18:23;;;;;;;2.30;2.00;;;16.40;99.90;;;;;;2069238;28;20722;-82
2023/07/30 01:19:23;;;;;;;2.10;1.90;;;16.40;99.90;;;;;;2073933;28;20495;-84
2023/07/30 01:20:24;;;;;;;3.07;1.90;;;16.50;99.90;;;;;;2060780;28;20258;-82
2023/07/30 01:21:25;;;;;;;2.47;1.60;;;16.50;99.90;;;;;;2055971;28;20701;-82
2023/07/30 01:22:25;;;;;;;2.50;1.90;;;16.50;99.90;;;;;;2054575;28;21034;-82
2023/07/30 01:23:26;;;;;;;1.67;1.57;;;16.50;99.90;;;;;;2066597;28;20230;-82
2023/07/30 01:24:27;;;;;;;2.47;2.10;;;16.50;99.90;;;;;;2077514;28;20245;-82
2023/07/30 01:25:33;;;;;;;2.63;2.20;;;16.40;99.90;;;;;;2067159;28;20495;-83
2023/07/30 01:26:48;;;;;;;2.33;2.03;;;16.50;99.90;;;;;;2072171;28;20316;-82
2023/07/30 01:27:52;;;;;;;2.43;2.07;;;16.60;99.90;;;;;;2063723;28;20478;-81
2023/07/30 01:28:56;;;;;;;2.50;2.20;;;16.60;99.90;;;;;;2062813;28;20480;-82
2023/07/30 01:30:28;;;;;;;2.20;2.00;;;16.60;99.90;;;;;;2063068;28;20583;-82
2023/07/30 01:31:31;;;;;;;2.70;2.10;;;16.70;99.90;;;;;;2062538;28;20477;-81
2023/07/30 01:32:33;;;;;;;1.97;1.80;;;16.80;99.90;;;;;;2063430;28;20475;-82
2023/07/30 01:33:34;;;;;;;2.50;1.90;;;16.80;99.90;;;;;;2064410;28;20480;-81
2023/07/30 01:34:36;;;;;;;2.23;2.03;;;16.70;99.90;;;;;;2070683;28;20488;-81
2023/07/30 01:35:38;;;;;;;2.00;1.80;;;16.70;99.90;;;;;;2067417;28;20296;-81
2023/07/30 01:36:40;;;;;;;2.53;2.00;;;16.70;99.90;;;;;;2068241;28;21086;-83
2023/07/30 01:37:42;;;;;;;2.30;2.10;;;16.50;99.90;;;;;;2061718;28;20480;-83
2023/07/30 01:38:44;;;;;;;3.07;2.20;;;16.40;99.90;;;;;;2061401;28;20468;-82
2023/07/30 01:39:48;;;;;;;2.20;2.00;;;16.50;99.90;;;;;;2064582;28;20487;-82
2023/07/30 01:40:49;;;;;;;2.67;2.27;;;16.40;99.90;;;;;;2057330;28;20523;-81
2023/07/30 01:41:49;;;;;;;4.50;2.17;;;16.30;99.90;;;;;;2068904;28;20470;-82
2023/07/30 01:42:50;;;;;;;2.23;2.00;;;16.30;99.90;;;;;;2069345;28;20885;-83
2023/07/30 01:43:51;;;;;;;2.77;2.00;;;16.30;99.90;;;;;;2072843;28;20225;-83
2023/07/30 01:44:52;;;;;;;2.13;1.93;;;16.20;99.90;;;;;;2072427;28;20474;-82
2023/07/30 01:45:53;;;;;;;2.97;2.00;;;16.20;99.90;;;;;;2068539;28;20710;-82
2023/07/30 01:46:53;;;;;;;3.00;1.90;;;16.10;99.90;;;;;;2076200;28;20220;-83
2023/07/30 01:47:54;;;;;;;2.00;1.80;;;16.10;99.90;;;;;;2064064;28;20232;-82
2023/07/30 01:48:55;;;;;;;2.13;1.93;;;16.10;99.90;;;;;;2062679;28;20280;-82
2023/07/30 01:49:55;;;;;;;2.50;2.10;;;16.00;99.90;;;;;;2071620;28;20228;-82
2023/07/30 01:50:56;;;;;;;2.23;1.93;;;16.10;99.90;;;;;;2063136;28;20230;-81
2023/07/30 01:51:57;;;;;;;2.20;2.00;;;16.10;99.90;;;;;;2063692;28;20225;-82
2023/07/30 01:52:57;;;;;;;2.47;1.73;;;16.10;99.90;;;;;;2066285;28;20765;-82
2023/07/30 01:53:58;;;;;;;1.83;1.67;;;16.10;99.90;;;;;;2071544;28;20217;-82
2023/07/30 01:55:00;;;;;;;2.20;2.00;;;16.10;99.90;;;;;;2071688;28;20228;-80
2023/07/30 01:56:01;;;;;;;2.77;2.03;;;16.30;99.90;;;;;;2072663;28;20646;-81
2023/07/30 01:57:02;;;;;;;2.30;1.90;;;16.30;99.90;;;;;;2064716;28;20423;-82
2023/07/30 01:58:03;;;;;;;2.43;1.60;;;16.40;99.90;;;;;;2060881;28;20758;-82
2023/07/30 01:59:03;;;;;;;1.93;1.80;;;16.40;99.90;;;;;;2067092;28;20674;-81
2023/07/30 02:00:05;;;;;;;2.20;2.00;;;16.50;99.90;;;;;;2072430;28;20198;-81
2023/07/30 02:01:06;;;;;;;2.10;1.90;;;16.50;99.90;;;;;;2076093;28;20576;-81
2023/07/30 02:02:10;;;;;;;2.30;1.90;;;16.40;99.90;;;;;;2067380;28;20451;-83
2023/07/30 02:03:10;;;;;;;2.63;2.00;;;16.40;99.90;;;;;;2062431;28;20195;-83
2023/07/30 02:04:11;;;;;;;2.93;2.00;;;16.20;99.90;;;;;;2062762;28;20440;-81
2023/07/30 02:05:12;;;;;;;2.40;2.20;;;16.30;99.90;;;;;;2063640;28;20201;-82
2023/07/30 02:06:12;;;;;;;3.13;2.20;;;16.20;99.90;;;;;;2068699;28;20224;-82
2023/07/30 02:07:13;;;;;;;2.40;1.80;;;16.30;99.90;;;;;;2058429;28;20229;-82
2023/07/30 02:08:15;;;;;;;1.70;1.60;;;16.30;99.90;;;;;;2060181;28;20229;-83
2023/07/30 02:09:16;;;;;;;1.70;1.60;;;16.30;99.90;;;;;;2078754;28;20243;-82
2023/07/30 02:10:17;;;;;;;2.37;2.10;;;16.30;99.90;;;;;;2064135;28;20941;-83
2023/07/30 02:11:17;;;;;;;2.30;1.90;;;16.30;99.90;;;;;;2063346;28;20238;-82
2023/07/30 02:12:18;;;;;;;1.97;1.77;;;16.30;99.90;;;;;;2079118;28;20294;-83
2023/07/30 02:13:19;;;;;;;2.20;2.00;;;16.40;99.90;;;;;;2079572;28;20299;-82
2023/07/30 02:14:19;;;;;;;2.67;1.83;;;16.30;99.90;;;;;;2069357;28;20248;-82
2023/07/30 02:15:20;;;;;;;2.00;1.80;;;16.40;99.90;;;;;;2070514;28;20244;-83
2023/07/30 02:16:21;;;;;;;2.30;2.10;;;16.40;99.90;;;;;;2078336;28;20253;-82
2023/07/30 02:17:21;;;;;;;2.40;2.20;;;16.50;99.90;;;;;;2070987;28;20287;-82
2023/07/30 02:18:22;;;;;;;2.80;2.20;;;16.50;99.90;;;;;;2063060;28;20225;-82
2023/07/30 02:19:23;;;;;;;2.13;1.80;;;16.50;99.90;;;;;;2055410;28;20285;-83
2023/07/30 02:20:24;;;;;;;2.37;1.90;;;16.50;99.90;;;;;;2063222;28;20245;-82
2023/07/30 02:21:24;;;;;;;2.20;1.93;;;16.50;99.90;;;;;;2059717;28;20234;-81
2023/07/30 02:22:26;;;;;;;2.17;1.97;;;16.50;99.90;;;;;;2057645;28;20690;-82
2023/07/30 02:23:27;;;;;;;2.23;2.03;;;16.50;99.90;;;;;;2067657;28;20308;-82
2023/07/30 02:24:28;;;;;;;2.60;2.10;;;16.40;99.90;;;;;;2065516;28;20561;-82
2023/07/30 02:25:29;;;;;;;1.87;1.77;;;16.40;99.90;;;;;;2069599;28;20703;-83
2023/07/30 02:26:30;;;;;;;3.20;2.13;;;16.50;99.90;;;;;;2070269;28;20222;-82
2023/07/30 02:27:30;;;;;;;2.73;2.10;;;16.40;99.90;;;;;;2058574;28;21080;-83
2023/07/30 02:28:31;;;;;;;2.97;2.47;;;16.40;99.90;;;;;;2053088;28;20290;-81
2023/07/30 02:29:32;;;;;;;2.30;2.00;;;16.50;99.90;;;;;;2063146;28;20215;-83
2023/07/30 02:30:34;;;;;;;2.57;1.93;;;16.50;99.90;;;;;;2068069;28;20214;-83
2023/07/30 02:31:34;;;;;;;2.77;2.43;;;16.40;99.90;;;;;;2063559;28;20226;-83
2023/07/30 02:32:35;;;;;;;2.53;1.97;;;16.40;99.90;;;;;;2071548;28;20493;-83
2023/07/30 02:33:36;;;;;;;3.10;2.33;;;16.30;99.90;;;;;;2074462;28;20704;-81
2023/07/30 02:34:36;;;;;;;3.73;2.13;;;16.40;99.90;;;;;;2071985;28;20324;-81
2023/07/30 02:35:37;;;;;;;2.60;2.37;;;16.30;99.90;;;;;;2063282;28;20215;-82
2023/07/30 02:36:38;;;;;;;2.90;2.20;;;16.30;99.90;;;;;;2062442;28;20217;-83
2023/07/30 02:37:38;;;;;;;3.73;2.30;;;16.30;99.90;;;;;;2060278;28;20354;-81
2023/07/30 02:38:39;;;;;;;5.57;2.57;;;16.20;99.90;;;;;;2071853;28;20229;-82
2023/07/30 02:39:40;;;;;;;4.03;2.20;;;16.20;99.90;;;;;;2071492;28;20224;-82
2023/07/30 02:40:41;;;;;;;1.73;1.60;;;16.20;99.90;;;;;;2062684;28;20226;-80
2023/07/30 02:41:42;;;;;;;2.20;1.90;;;16.30;99.90;;;;;;2063530;28;20475;-81
2023/07/30 02:42:43;;;;;;;3.13;2.20;;;16.30;99.90;;;;;;2060840;28;20221;-80
2023/07/30 02:43:43;;;;;;;2.80;2.30;;;16.40;99.90;;;;;;2074404;28;20221;-81
2023/07/30 02:44:44;;;;;;;2.33;2.10;;;16.40;99.90;;;;;;2057549;28;20266;-80
2023/07/30 02:45:48;;;;;;;4.23;2.37;;;16.40;99.90;;;;;;2066887;28;20222;-81
2023/07/30 02:46:48;;;;;;;2.23;2.03;;;16.50;99.90;;;;;;2065054;28;20226;-82
2023/07/30 02:47:49;;;;;;;3.40;2.33;;;16.50;99.90;;;;;;2063142;28;20476;-82
2023/07/30 02:48:50;;;;;;;2.40;2.20;;;16.40;99.90;;;;;;2063334;28;20233;-82
2023/07/30 02:49:50;;;;;;;2.30;2.00;;;16.50;99.90;;;;;;2063618;28;20230;-82
2023/07/30 02:50:51;;;;;;;2.73;2.50;;;16.50;99.90;;;;;;2079257;28;20871;-82
2023/07/30 02:51:52;;;;;;;3.37;1.77;;;16.50;99.90;;;;;;2079057;28;20277;-81
2023/07/30 02:52:52;;;;;;;3.00;1.90;;;16.50;99.90;;;;;;2069827;28;20280;-82
2023/07/30 02:53:59;;;;;;;2.47;1.87;;;16.60;99.90;;;;;;2068280;28;20304;-82
2023/07/30 02:55:00;;;;;;;2.17;1.97;;;16.50;99.90;;;;;;2070540;28;20302;-82
2023/07/30 02:56:00;;;;;;;2.67;2.00;;;16.40;99.90;;;;;;2076737;28;20520;-82
2023/07/30 02:57:01;;;;;;;2.03;1.87;;;16.30;99.90;;;;;;2064909;28;20244;-81
2023/07/30 02:58:02;;;;;;;2.73;2.20;;;16.30;99.90;;;;;;2069223;28;20245;-81
2023/07/30 02:59:02;;;;;;;2.93;2.00;;;16.30;99.90;;;;;;2078358;28;20169;-80
2023/07/30 03:00:04;;;;;;;3.23;2.23;;;16.20;99.90;;;;;;2069431;28;20183;-80
2023/07/30 03:01:09;;;;;;;2.23;2.00;;;16.20;99.90;;;;;;2058898;28;20191;-82
2023/07/30 03:02:10;;;;;;;2.53;1.90;;;16.20;99.90;;;;;;2064754;28;21106;-81
2023/07/30 03:03:11;;;;;;;1.70;1.60;;;16.20;99.90;;;;;;2073122;28;20431;-82
2023/07/30 03:04:11;;;;;;;2.47;1.63;;;16.30;99.90;;;;;;2073301;28;20226;-82
2023/07/30 03:05:12;;;;;;;2.77;2.00;;;16.20;99.90;;;;;;2074149;28;20222;-82
2023/07/30 03:06:13;;;;;;;2.10;1.90;;;16.30;99.90;;;;;;2082566;28;20223;-81
2023/07/30 03:07:14;;;;;;;2.10;1.90;;;16.40;99.90;;;;;;2074347;28;20812;-82
2023/07/30 03:08:15;;;;;;;2.20;1.90;;;16.30;99.90;;;;;;2065637;28;20462;-82
2023/07/30 03:09:16;;;;;;;2.50;2.17;;;16.40;99.90;;;;;;2061672;28;20230;-82
2023/07/30 03:10:17;;;;;;;2.17;1.77;;;16.50;99.90;;;;;;2065373;28;20253;-82
2023/07/30 03:11:18;;;;;;;2.70;2.00;;;16.50;99.90;;;;;;2072720;28;20681;-81
2023/07/30 03:12:19;;;;;;;2.10;1.77;;;16.60;99.90;;;;;;2082534;28;20473;-82
2023/07/30 03:13:21;;;;;;;3.13;2.10;;;16.60;99.90;;;;;;2061636;28;20283;-81
2023/07/30 03:14:22;;;;;;;3.70;2.57;;;16.60;99.90;;;;;;2066112;28;20222;-83
2023/07/30 03:15:23;;;;;;;2.47;2.10;;;16.70;99.90;;;;;;2062104;28;20476;-83
2023/07/30 03:16:23;;;;;;;2.27;2.03;;;16.70;99.90;;;;;;2068142;28;20238;-82
2023/07/30 03:17:25;;;;;;;2.33;1.80;;;16.80;99.90;;;;;;2080428;28;20238;-82
2023/07/30 03:18:25;;;;;;;2.57;1.97;;;16.80;99.90;;;;;;2071367;28;20226;-82
2023/07/30 03:19:26;;;;;;;2.80;1.90;;;16.80;99.90;;;;;;2078101;28;20471;-82
2023/07/30 03:20:27;;;;;;;2.17;1.97;;;16.70;99.90;;;;;;2086789;28;20232;-84
2023/07/30 03:21:27;;;;;;;2.93;1.90;;;16.70;99.90;;;;;;2093204;28;20212;-81
2023/07/30 03:22:28;;;;;;;5.53;2.17;;;16.70;99.90;;;;;;2080700;28;20318;-81
2023/07/30 03:23:29;;;;;;;2.00;1.87;;;16.60;99.90;;;;;;2079628;28;20237;-82
2023/07/30 03:24:30;;;;;;;2.33;1.90;;;16.50;99.90;;;;;;2089847;28;20224;-82
2023/07/30 03:25:30;;;;;;;3.40;2.20;;;16.40;99.90;;;;;;2080932;28;20351;-81
2023/07/30 03:26:31;;;;;;;2.47;2.20;;;16.30;99.90;;;;;;2065183;28;20253;-81
2023/07/30 03:27:31;;;;;;;2.27;1.97;;;16.20;99.90;;;;;;2071156;28;20254;-82
2023/07/30 03:28:32;;;;;;;2.30;2.10;;;16.10;99.90;;;;;;2080620;28;20213;-81
2023/07/30 03:29:33;;;;;;;3.50;2.30;;;16.10;99.90;;;;;;2074479;28;20225;-82
2023/07/30 03:30:34;;;;;;;4.30;2.30;;;16.10;99.90;;;;;;2064606;28;20246;-82
2023/07/30 03:31:34;;;;;;;5.83;2.43;;;16.10;99.90;;;;;;2074211;28;20252;-80
2023/07/30 03:32:35;;;;;;;2.77;2.20;;;16.00;99.90;;;;;;2085512;28;20231;-79
2023/07/30 03:33:39;;;;;;;3.30;2.33;;;15.90;99.90;;;;;;2085305;28;20213;-79
2023/07/30 03:34:39;;;;;;;2.30;2.00;;;15.90;99.90;;;;;;2080556;28;20293;-80
2023/07/30 03:35:40;;;;;;;3.30;2.53;;;15.90;99.90;;;;;;2078217;28;20459;-80
2023/07/30 03:36:41;;;;;;;2.27;2.07;;;15.90;99.90;;;;;;2089229;28;20299;-81
2023/07/30 03:37:41;;;;;;;2.97;2.30;;;15.90;99.90;;;;;;2072984;28;20228;-81
2023/07/30 03:38:43;;;;;;;2.20;1.83;;;16.00;99.90;;;;;;2064593;28;20242;-81
2023/07/30 03:39:44;;;;;;;1.97;1.77;;;16.00;99.90;;;;;;2065058;28;20206;-79
2023/07/30 03:40:44;;;;;;;2.90;2.03;;;16.00;99.90;;;;;;2071457;28;20588;-79
2023/07/30 03:41:45;;;;;;;2.40;2.20;;;16.00;99.90;;;;;;2083350;28;20229;-80
2023/07/30 03:42:46;;;;;;;2.73;2.43;;;16.10;99.90;;;;;;2081169;28;20260;-80
2023/07/30 03:43:47;;;;;;;2.30;1.87;;;16.00;99.90;;;;;;2079335;28;20229;-80
2023/07/30 03:44:47;;;;;;;1.87;1.73;;;16.00;99.90;;;;;;2078542;28;20206;-80
2023/07/30 03:45:48;;;;;;;2.10;1.87;;;16.10;99.90;;;;;;2080545;28;20505;-82
2023/07/30 03:46:49;;;;;;;3.43;2.10;;;16.00;99.90;;;;;;2083355;28;20244;-81
2023/07/30 03:47:49;;;;;;;3.50;1.80;;;15.90;99.90;;;;;;2088543;28;20223;-81
2023/07/30 03:48:50;;;;;;;2.37;1.80;;;15.90;99.90;;;;;;2081315;28;20260;-81
2023/07/30 03:49:51;;;;;;;2.50;1.90;;;15.90;99.90;;;;;;2081029;28;20251;-81
2023/07/30 03:50:53;;;;;;;2.47;1.80;;;15.90;99.90;;;;;;2082810;28;20229;-80
2023/07/30 03:51:54;;;;;;;2.27;2.07;;;16.00;99.90;;;;;;2084775;28;20255;-81
2023/07/30 03:52:54;;;;;;;5.47;2.60;;;16.10;99.90;;;;;;2088855;28;20477;-81
2023/07/30 03:53:55;;;;;;;2.87;2.00;;;16.10;99.90;;;;;;2088770;28;20228;-79
2023/07/30 03:54:56;;;;;;;3.77;2.17;;;16.10;99.90;;;;;;2080800;28;20233;-79
2023/07/30 03:55:56;;;;;;;2.70;1.73;;;16.10;99.90;;;;;;2087847;28;20212;-79
2023/07/30 03:56:57;;;;;;;1.87;1.73;;;16.10;99.90;;;;;;2086045;28;20224;-80
2023/07/30 03:57:58;;;;;;;2.40;2.07;;;16.10;99.90;;;;;;2071008;28;20592;-79
2023/07/30 03:58:59;;;;;;;2.73;2.33;;;16.10;99.90;;;;;;2080534;28;20201;-80
2023/07/30 04:00:00;;;;;;;2.27;1.83;;;16.10;99.90;;;;;;2088055;28;20418;-79
2023/07/30 04:01:01;;;;;;;2.00;1.90;;;16.10;99.90;;;;;;2070708;28;20192;-82
2023/07/30 04:02:02;;;;;;;2.27;2.07;;;16.00;99.90;;;;;;2068525;28;20487;-83
2023/07/30 04:03:03;;;;;;;2.17;1.97;;;15.90;99.90;;;;;;2068571;28;20458;-82
2023/07/30 04:04:04;;;;;;;2.20;2.00;;;16.00;99.90;;;;;;2071300;28;20435;-82
2023/07/30 04:05:05;;;;;;;3.37;1.97;;;16.00;99.90;;;;;;2062978;28;20190;-82
2023/07/30 04:06:05;;;;;;;1.97;1.83;;;16.00;99.90;;;;;;2072728;28;20192;-82
2023/07/30 04:07:06;;;;;;;2.50;2.00;;;16.00;99.90;;;;;;2071101;28;20185;-82
2023/07/30 04:08:07;;;;;;;1.80;1.60;;;16.10;99.90;;;;;;2063984;28;20193;-82
2023/07/30 04:09:08;;;;;;;2.73;2.20;;;16.10;99.90;;;;;;2064523;28;20202;-81
2023/07/30 04:10:09;;;;;;;1.90;1.80;;;16.00;99.90;;;;;;2062950;28;20201;-82
2023/07/30 04:11:12;;;;;;;2.90;1.70;;;16.00;99.90;;;;;;2064691;28;20448;-82
2023/07/30 04:12:14;;;;;;;2.20;1.70;;;16.00;99.90;;;;;;2071919;28;20679;-82
2023/07/30 04:13:15;;;;;;;2.60;1.93;;;15.90;99.90;;;;;;2068706;28;20959;-82
2023/07/30 04:14:16;;;;;;;1.93;1.73;;;15.90;99.90;;;;;;2067274;28;20526;-82
2023/07/30 04:15:16;;;;;;;2.30;2.00;;;15.90;99.90;;;;;;2059452;28;20197;-82
2023/07/30 04:16:17;;;;;;;1.87;1.77;;;15.90;99.90;;;;;;2059655;28;20650;-83
2023/07/30 04:17:18;;;;;;;1.70;1.60;;;15.90;99.90;;;;;;2059144;28;20242;-83
2023/07/30 04:18:19;;;;;;;2.20;1.83;;;15.90;99.90;;;;;;2071902;28;20683;-82
2023/07/30 04:19:20;;;;;;;2.13;1.73;;;16.00;99.90;;;;;;2071107;28;20255;-82
2023/07/30 04:20:21;;;;;;;2.10;1.90;;;16.00;99.90;;;;;;2068223;28;20468;-82
2023/07/30 04:21:22;;;;;;;2.03;1.83;;;15.90;99.90;;;;;;2063293;28;20559;-82
2023/07/30 04:22:22;;;;;;;2.20;2.00;;;16.00;99.90;;;;;;2070772;28;20778;-82
2023/07/30 04:23:23;;;;;;;2.20;2.00;;;16.00;99.90;;;;;;2066350;28;20253;-83
2023/07/30 04:24:25;;;;;;;1.90;1.70;;;16.10;99.90;;;;;;2061823;28;20241;-82
2023/07/30 04:25:26;;;;;;;4.03;2.10;;;16.10;99.90;;;;;;2070094;28;20225;-82
2023/07/30 04:26:27;;;;;;;2.53;2.20;;;16.10;99.90;;;;;;2069165;28;20506;-82
2023/07/30 04:27:27;;;;;;;2.40;2.20;;;16.00;99.90;;;;;;2076003;28;20231;-81
2023/07/30 04:28:28;;;;;;;1.87;1.70;;;16.00;99.90;;;;;;2057930;28;20258;-82
2023/07/30 04:29:29;;;;;;;1.90;1.70;;;16.00;99.90;;;;;;2060012;28;20337;-82
2023/07/30 04:30:29;;;;;;;2.47;2.27;;;15.90;99.90;;;;;;2075609;28;20318;-82
2023/07/30 04:31:32;;;;;;;2.33;1.80;;;16.00;99.90;;;;;;2067751;28;20317;-81
2023/07/30 04:32:33;;;;;;;2.27;1.87;;;16.10;99.90;;;;;;2069045;28;20300;-82
2023/07/30 04:33:33;;;;;;;2.53;1.97;;;16.10;99.90;;;;;;2069945;28;21010;-82
2023/07/30 04:34:34;;;;;;;2.00;1.83;;;16.10;99.90;;;;;;2069856;28;20225;-82
2023/07/30 04:35:35;;;;;;;2.13;1.80;;;16.10;99.90;;;;;;2067866;28;20322;-82
2023/07/30 04:36:35;;;;;;;2.40;1.87;;;16.10;99.90;;;;;;2075351;28;20340;-82
2023/07/30 04:37:36;;;;;;;1.93;1.73;;;16.20;99.90;;;;;;2061056;28;20283;-82
2023/07/30 04:38:37;;;;;;;1.90;1.70;;;16.20;99.90;;;;;;2071122;28;20594;-82
2023/07/30 04:39:37;;;;;;;1.90;1.67;;;16.30;99.90;;;;;;2066139;28;20228;-82
2023/07/30 04:40:39;;;;;;;2.90;1.70;;;16.40;99.90;;;;;;2054634;28;20246;-82
2023/07/30 04:41:40;;;;;;;2.13;1.50;;;16.30;99.90;;;;;;2070801;28;20233;-81
2023/07/30 04:42:40;;;;;;;2.00;1.50;;;16.40;99.90;;;;;;2076799;28;20470;-82
2023/07/30 04:43:41;;;;;;;1.90;1.53;;;16.30;99.90;;;;;;2070753;28;20260;-82
2023/07/30 04:44:42;;;;;;;1.77;1.67;;;16.30;99.90;;;;;;2062568;28;20257;-81
2023/07/30 04:45:43;;;;;;;3.00;1.63;;;16.30;99.90;;;;;;2054339;28;20273;-82
2023/07/30 04:46:43;;;;;;;2.23;1.80;;;16.50;99.90;;;;;;2052676;28;20234;-82
2023/07/30 04:47:44;;;;;;;1.50;1.40;;;16.60;99.90;;;;;;2051909;28;20477;-82
2023/07/30 04:48:45;;;;;;;3.03;2.00;;;16.80;99.90;;;;;;2054849;28;20231;-83
2023/07/30 04:49:45;;;;;;;2.37;1.60;;;16.80;99.90;;;;;;2074869;28;20228;-81
2023/07/30 04:50:46;;;;;;;1.60;1.50;;;16.80;99.90;;;;;;2072646;28;21048;-80
2023/07/30 04:51:47;;;;;;;2.13;1.53;;;16.80;99.90;;;;;;2054990;28;20227;-83
2023/07/30 04:52:47;;;;;;;2.07;1.87;;;16.70;99.90;;;;;;2062005;28;20218;-81
2023/07/30 04:53:48;;;;;;;1.77;1.30;;;16.70;99.90;;;;;;2068470;28;20327;-80
2023/07/30 04:54:49;;;;;;;2.27;1.73;;;16.70;99.90;;;;;;2068400;28;20237;-83
2023/07/30 04:55:56;;;;;;;2.30;1.53;;;16.60;99.90;;;;;;2079607;28;20783;-81
2023/07/30 04:56:57;;;;;;;1.57;1.47;;;16.40;99.90;;;;;;2077709;28;20209;-82
2023/07/30 04:57:58;;;;;;;1.90;1.70;;;16.30;99.90;;;;;;2081453;28;20438;-82
2023/07/30 04:58:59;;;;;;;1.50;1.40;;;16.30;99.90;;;;;;2079119;28;20193;-82
2023/07/30 05:00:00;;;;;;;3.13;1.70;;;16.30;99.90;;;;;;2068890;28;20196;-83
2023/07/30 05:01:00;;;;;;;1.60;1.50;;;16.30;99.90;;;;;;2067836;28;20490;-83
2023/07/30 05:02:01;;;;;;;1.73;1.57;;;16.40;99.90;;;;;;2066841;28;20213;-82
2023/07/30 05:03:02;;;;;;;1.90;1.70;;;16.40;99.90;;;;;;2075785;28;20185;-82
2023/07/30 05:04:02;;;;;;;2.87;1.60;;;16.40;99.90;;;;;;2077787;28;20253;-80
2023/07/30 05:05:04;;;;;;;3.57;1.47;;;16.50;99.90;;;;;;2071270;28;20753;-81
2023/07/30 05:06:05;;;;;;;1.60;1.40;;;16.50;99.90;;;;;;2055279;28;20217;-79
2023/07/30 05:07:06;;;;;;;1.53;1.40;;;16.50;99.90;;;;;;2071169;28;20430;-80
2023/07/30 05:08:07;;;;;;;2.70;1.60;;;16.50;99.90;;;;;;2071398;28;20477;-81
2023/07/30 05:09:08;;;;;;;1.30;1.20;;;16.60;99.90;;;;;;2073843;28;20271;-81
2023/07/30 05:10:10;;;;;;;1.50;1.37;;;16.70;99.90;;;;;;2062042;28;20476;-81
2023/07/30 05:11:11;;;;;;;1.80;1.50;;;16.70;99.90;;;;;;2069132;28;20420;-80
2023/07/30 05:12:12;;;;;;;1.50;1.10;;;16.70;99.90;;;;;;2075936;28;20441;-80
2023/07/30 05:13:13;;;;;;;1.77;1.40;;;16.60;99.90;;;;;;2070744;28;20189;-80
2023/07/30 05:14:13;;;;;;;1.53;1.43;;;16.60;99.90;;;;;;2061668;28;20194;-80
2023/07/30 05:15:14;;;;;;;1.30;1.20;;;16.60;99.90;;;;;;2064330;28;20838;-81
2023/07/30 05:16:15;;;;;;;2.80;1.20;;;16.60;99.90;;;;;;2068693;28;20677;-80
2023/07/30 05:17:15;;;;;;;1.47;1.37;;;16.50;99.90;;;;;;2070960;28;20189;-81
2023/07/30 05:18:16;;;;;;;2.20;1.60;;;16.50;99.90;;;;;;2071903;28;20193;-82
2023/07/30 05:19:17;;;;;;;3.57;1.40;;;16.60;99.90;;;;;;2077094;28;20296;-82